Latest Weather Observations for Aireys Inlet

IDV60801

Issued at 10:42 pm EDT Tuesday 23 October 2018 (issued every 10 minutes, with the page automatically refreshed every 10 minutes)

About weather observations | Map of weather stations | Latest weather observations for VIC | Other Formats
Station Details ID: 090180 Name: AIREYS INLET Lat: -38.46 Lon: 144.09 Height: 105.0 m
Data from the previous 72 hours. | See also: Recent months at Aireys Inlet
Date/Time
EDT
Temp
°C
App
Temp
°C
Dew
Point
°C
Rel
Hum
%
Delta-T
°C
Wind Press
QNH
hPa
Press
MSL
hPa
Rain since
9am
mm
Dir  Spd
km/h
Gust
km/h
Spd
kts
Gust
kts
23/10:30pm 9.3 5.0 3.5 67 2.5 W 15 19 8 10 - - 0.0
23/10:00pm 9.3 4.7 3.9 69 2.4 W 17 22 9 12 - - 0.0
23/09:30pm 9.4 5.6 3.8 68 2.5 WSW 13 17 7 9 - - 0.0
23/09:00pm 10.1 5.1 3.8 65 2.8 WSW 19 28 10 15 - - 0.0
23/08:30pm 10.3 5.9 2.9 60 3.2 W 15 20 8 11 - - 0.0
23/08:00pm 11.3 5.2 2.9 56 3.7 WSW 24 37 13 20 - - 0.0
23/07:30pm 11.6 5.9 3.1 56 3.7 SW 22 28 12 15 - - 0.0
23/07:00pm 13.0 6.0 3.9 54 4.1 SW 30 46 16 25 - - 0.0
23/06:30pm 13.2 5.9 4.6 56 4.0 SW 32 44 17 24 - - 0.0
23/06:16pm 14.4 8.0 5.2 54 4.3 SW 28 46 15 25 - - 0.0
23/06:00pm 14.5 8.4 6.8 60 3.8 SW 28 43 15 23 - - 0.0
23/05:33pm 13.1 6.1 6.7 65 3.1 SW 33 56 18 30 - - 0.0
23/05:30pm 13.4 6.5 7.2 66 3.0 SW 33 50 18 27 - - 0.0
23/05:17pm 13.6 6.6 6.7 63 3.3 SW 33 54 18 29 - - 0.0
23/05:00pm 14.5 8.5 5.3 54 4.4 SW 26 37 14 20 - - 0.0
23/04:30pm 15.9 10.6 6.6 54 4.6 SW 24 37 13 20 - - 0.0
23/04:00pm 15.4 9.2 4.5 48 5.1 W 26 39 14 21 - - 0.0
23/03:30pm 14.5 8.5 7.1 61 3.6 SW 28 44 15 24 - - 0.0
23/03:00pm 15.4 10.4 7.9 61 3.8 SSW 24 39 13 21 - - 0.0
23/02:30pm 16.5 10.9 8.7 60 4.0 SW 28 43 15 23 - - 0.0
23/02:00pm 16.5 10.5 6.9 53 4.8 WSW 28 43 15 23 - - 0.0
23/01:30pm 16.9 12.8 8.6 58 4.3 SSW 20 32 11 17 - - 0.0
23/01:00pm 17.9 14.6 7.9 52 5.1 WSW 15 24 8 13 - - 0.0
23/12:30pm 17.6 13.2 7.4 51 5.2 W 20 33 11 18 - - 0.0
23/12:15pm 17.2 12.4 4.9 44 5.9 WSW 19 39 10 21 - - 0.0
23/12:00pm 18.2 16.0 7.9 51 5.3 SSW 9 17 5 9 - - 0.0
23/11:30am 17.0 14.7 8.9 59 4.2 SSE 11 15 6 8 - - 0.0
23/11:00am 17.1 14.9 9.5 61 4.0 SSE 11 15 6 8 - - 0.0
23/10:30am 16.0 14.2 9.4 65 3.4 SSW 9 15 5 8 - - 0.0
23/10:00am 15.1 13.2 9.2 68 3.0 WSW 9 17 5 9 - - 0.0
23/09:30am 13.9 11.8 9.7 76 2.2 W 11 17 6 9 - - 0.0
23/09:00am 12.8 10.8 10.3 85 1.3 WNW 11 19 6 10 - - 0.2
23/08:30am 12.9 11.5 9.7 81 1.6 W 7 11 4 6 - - 0.2
23/08:00am 12.8 10.7 9.8 82 1.5 WNW 11 15 6 8 - - 0.2
23/07:30am 12.0 9.3 10.4 90 0.8 NW 15 19 8 10 - - 0.2
23/07:00am 12.3 10.6 10.0 86 1.2 WNW 9 13 5 7 - - 0.0
23/06:30am 12.6 9.7 9.6 82 1.5 WNW 15 20 8 11 - - 0.0
23/06:00am 12.6 11.2 9.4 81 1.6 NW 7 9 4 5 - - 0.0
23/05:30am 12.3 10.6 9.9 85 1.2 NW 9 13 5 7 - - 0.0
23/05:00am 12.3 11.5 9.7 84 1.3 NNW 4 11 2 6 - - 0.0
23/04:30am 12.4 11.3 9.8 84 1.3 NNE 6 11 3 6 - - 0.0
23/04:00am 12.6 11.8 9.8 83 1.4 N 4 11 2 6 - - 0.0
23/03:30am 12.5 12.1 9.9 84 1.3 SW 2 6 1 3 - - 0.0
23/03:00am 12.7 11.5 10.2 85 1.3 ENE 7 11 4 6 - - 0.0
23/02:30am 12.6 11.5 10.0 84 1.3 E 6 9 3 5 - - 0.0
23/02:00am 12.7 11.5 9.7 82 1.5 NW 6 9 3 5 - - 0.0
23/01:30am 12.7 12.2 10.8 88 1.0 NNE 4 7 2 4 - - 0.0
23/01:00am 13.0 12.5 10.9 87 1.1 W 4 6 2 3 - - 0.0
23/12:30am 13.7 12.4 11.2 85 1.3 WSW 9 15 5 8 - - 0.0
23/12:00am 13.9 12.6 11.1 83 1.5 SSW 9 15 5 8 - - 0.0
 
Date/Time
EDT
Temp
°C
App
Temp
°C
Dew
Point
°C
Rel
Hum
%
Delta-T
°C
Wind Press
QNH
hPa
Press
MSL
hPa
Rain since
9am
mm
Dir  Spd
km/h
Gust
km/h
Spd
kts
Gust
kts
22/11:30pm 14.2 12.8 10.8 80 1.8 SW 9 19 5 10 - - 0.0
22/11:00pm 14.4 11.1 10.8 79 1.9 SW 19 24 10 13 - - 0.0
22/10:30pm 15.0 14.9 10.8 76 2.2 N 2 9 1 5 - - 0.0
22/10:00pm 15.0 12.8 10.8 76 2.2 SSW 13 20 7 11 - - 0.0
22/09:30pm 15.2 14.2 10.2 72 2.6 ESE 6 9 3 5 - - 0.0
22/09:00pm 15.5 13.3 10.7 73 2.6 SW 13 24 7 13 - - 0.0
22/08:30pm 16.1 13.6 9.8 66 3.3 S 13 20 7 11 - - 0.0
22/08:00pm 16.4 14.8 10.3 67 3.2 SSW 9 17 5 9 - - 0.0
22/07:30pm 17.0 15.4 10.1 64 3.7 SW 9 19 5 10 - - 0.0
22/07:00pm 18.2 14.5 9.3 56 4.7 SW 19 30 10 16 - - 0.0
22/06:43pm 21.0 16.8 7.6 42 6.9 WSW 19 37 10 20 - - 0.0
22/06:30pm 26.4 22.5 3.6 23 11.4 NW 13 22 7 12 - - 0.0
22/06:00pm 27.4 22.3 3.2 21 12.1 NNW 19 33 10 18 - - 0.0
22/05:30pm 28.3 23.2 3.9 21 12.4 NNW 20 41 11 22 - - 0.0
22/05:16pm 27.5 20.6 2.6 20 12.3 NNW 28 46 15 25 - - 0.0
22/05:00pm 28.1 20.4 2.3 19 12.7 NNW 32 48 17 26 - - 0.0
22/04:30pm 28.0 21.2 5.0 23 11.9 NNW 30 54 16 29 - - 0.0
22/04:00pm 27.7 21.3 5.3 24 11.6 N 28 50 15 27 - - 0.0
22/03:40pm 27.0 20.4 4.1 23 11.6 NNW 28 50 15 27 - - 0.0
22/03:30pm 27.2 21.2 5.5 25 11.2 NNW 26 44 14 24 - - 0.0
22/03:00pm 26.1 19.5 4.0 24 11.1 NNW 28 46 15 25 - - 0.0
22/02:34pm 25.2 18.6 4.3 26 10.5 NNW 28 48 15 26 - - 0.0
22/02:30pm 25.8 20.4 4.3 25 10.8 NNW 22 41 12 22 - - 0.0
22/02:00pm 26.3 21.2 5.8 27 10.6 NW 22 39 12 21 - - 0.0
22/01:30pm 25.3 19.3 5.5 28 10.1 NNW 26 39 14 21 - - 0.0
22/01:00pm 24.6 17.9 5.4 29 9.8 NNW 30 46 16 25 - - 0.0
22/12:31pm 23.7 16.9 5.1 30 9.4 NW 30 48 16 26 - - 0.0
22/12:30pm 23.9 16.8 5.3 30 9.4 NW 32 48 17 26 - - 0.0
22/12:28pm 24.0 17.3 5.4 30 9.4 NW 30 48 16 26 - - 0.0
22/12:00pm 23.8 19.3 7.0 34 8.8 NNW 20 35 11 19 - - 0.0
22/11:30am 22.2 17.9 8.0 40 7.5 NW 20 32 11 17 - - 0.0
22/11:00am 20.9 16.3 8.2 44 6.7 NW 22 41 12 22 - - 0.0
22/10:30am 19.9 16.6 7.9 46 6.2 NNW 15 28 8 15 - - 0.0
22/10:00am 18.1 13.7 6.6 47 5.7 NNW 19 35 10 19 - - 0.0
22/09:30am 16.9 13.8 7.3 53 4.8 NNW 13 24 7 13 - - 0.0
22/09:00am 15.0 11.5 7.3 60 3.8 N 15 28 8 15 - - 0.0
22/08:30am 13.6 12.0 8.7 72 2.5 NNE 7 13 4 7 - - 0.0
22/08:00am 12.6 11.1 8.3 75 2.1 ENE 6 9 3 5 - - 0.0
22/07:30am 11.1 9.9 8.0 81 1.5 NNE 4 7 2 4 - - 0.0
22/07:00am 11.1 9.4 8.5 84 1.3 N 7 13 4 7 - - 0.0
22/06:30am 10.6 8.3 8.9 89 0.8 N 11 15 6 8 - - 0.0
22/06:00am 10.4 7.5 9.6 95 0.4 N 15 19 8 10 - - 0.0
22/05:30am 10.4 8.3 9.8 96 0.3 NNE 11 15 6 8 - - 0.0
22/05:00am 10.6 8.9 10.0 96 0.3 N 9 15 5 8 - - 0.0
22/04:30am 10.9 8.9 10.3 96 0.3 N 11 19 6 10 - - 0.0
22/04:00am 10.8 8.8 10.2 96 0.3 N 11 20 6 11 - - 0.0
22/03:30am 10.6 8.9 10.0 96 0.3 N 9 11 5 6 - - 0.0
22/03:00am 10.3 8.2 9.7 96 0.3 N 11 15 6 8 - - 0.0
22/02:30am 9.7 7.8 9.1 96 0.3 N 9 13 5 7 - - 0.0
22/02:00am 9.6 7.7 9.0 96 0.3 N 9 11 5 6 - - 0.0
22/01:30am 9.7 8.2 9.1 96 0.3 N 7 11 4 6 - - 0.0
22/01:00am 9.6 8.1 9.0 96 0.3 N 7 9 4 5 - - 0.0
22/12:30am 9.4 7.8 8.8 96 0.3 NNW 7 9 4 5 - - 0.0
22/12:00am 9.6 8.1 9.0 96 0.3 NNW 7 9 4 5 - - 0.0
 
Date/Time
EDT
Temp
°C
App
Temp
°C
Dew
Point
°C
Rel
Hum
%
Delta-T
°C
Wind Press
QNH
hPa
Press
MSL
hPa
Rain since
9am
mm
Dir  Spd
km/h
Gust
km/h
Spd
kts
Gust
kts
21/11:30pm 9.8 7.9 9.2 96 0.3 NNW 9 11 5 6 - - 0.0
21/11:00pm 9.8 8.3 9.2 96 0.3 NNW 7 9 4 5 - - 0.0
21/10:30pm 10.3 8.9 9.5 95 0.4 NNW 7 9 4 5 - - 0.0
21/10:00pm 10.8 9.7 10.0 95 0.4 SSW 6 6 3 3 - - 0.0
21/09:30pm 11.5 11.7 10.7 95 0.4 CALM 0 0 0 0 - - 0.0
21/09:00pm 11.3 11.0 10.0 92 0.7 SSW 2 2 1 1 - - 0.0
21/08:30pm 11.7 11.5 10.4 92 0.7 SSW 2 4 1 2 - - 0.0
21/08:00pm 12.0 11.3 10.1 88 1.0 SSW 4 6 2 3 - - 0.0
21/07:30pm 12.9 11.9 10.3 84 1.4 SSW 6 11 3 6 - - 0.0
21/07:00pm 13.7 12.9 11.0 84 1.4 SSW 6 11 3 6 - - 0.0
21/06:30pm 13.8 12.8 11.0 83 1.5 SSW 7 13 4 7 - - 0.0
21/06:00pm 14.4 12.6 11.0 80 1.8 SSW 11 17 6 9 - - 0.0
21/05:30pm 14.1 12.8 11.4 84 1.4 SSW 9 13 5 7 - - 0.0
21/05:00pm 13.9 13.0 11.2 84 1.4 SSW 7 13 4 7 - - 0.0
21/04:30pm 14.2 12.5 11.2 82 1.6 SSW 11 19 6 10 - - 0.0
21/04:00pm 15.2 13.6 11.6 79 1.9 S 11 17 6 9 - - 0.0
21/03:30pm 15.9 14.7 11.7 76 2.3 S 9 15 5 8 - - 0.0
21/03:00pm 15.5 14.2 11.3 76 2.3 SSW 9 13 5 7 - - 0.0
21/02:30pm 15.6 14.5 11.8 78 2.1 SSW 9 17 5 9 - - 0.0
21/02:00pm 15.1 13.6 9.2 68 3.0 SSE 7 13 4 7 - - 0.0
21/01:30pm 15.4 13.4 8.6 64 3.5 E 9 13 5 7 - - 0.0
21/01:00pm 17.3 15.8 9.2 59 4.2 NE 7 11 4 6 - - 0.0
21/12:30pm 16.4 15.3 8.4 59 4.1 NNE 4 7 2 4 - - 0.0
21/12:00pm 15.9 14.9 8.9 63 3.6 N 4 7 2 4 - - 0.0
21/11:30am 15.5 13.8 8.3 62 3.7 NW 7 13 4 7 - - 0.0
21/11:00am 16.5 14.1 8.7 60 4.0 NW 11 19 6 10 - - 0.0
21/10:30am 15.7 14.5 9.4 66 3.3 NNW 6 11 3 6 - - 0.0
21/10:00am 15.3 14.2 8.3 63 3.5 WNW 4 13 2 7 - - 0.0
21/09:30am 14.5 13.0 8.5 67 3.0 W 6 13 3 7 - - 0.0
21/09:00am 12.7 11.1 8.8 77 2.0 NW 7 11 4 6 - - 0.6
21/08:30am 12.2 11.1 9.9 86 1.2 NW 6 9 3 5 - - 0.6
21/08:00am 11.5 10.2 9.1 85 1.2 NW 6 9 3 5 - - 0.6
21/07:30am 11.2 10.2 8.8 85 1.2 WNW 4 7 2 4 - - 0.6
21/07:00am 10.9 8.1 8.7 86 1.1 SW 13 19 7 10 - - 0.6
21/06:30am 10.4 8.8 8.2 86 1.1 W 6 7 3 4 - - 0.6
21/06:00am 9.9 7.0 8.0 88 0.9 WNW 13 19 7 10 - - 0.6
21/05:30am 10.1 7.5 7.9 86 1.1 NW 11 15 6 8 - - 0.6
21/05:00am 9.4 6.7 7.5 88 0.9 W 11 15 6 8 - - 0.6
21/04:30am 9.3 7.0 7.6 89 0.8 NW 9 13 5 7 - - 0.6
21/04:00am 9.8 7.2 7.6 86 1.1 WSW 11 20 6 11 - - 0.6
21/03:30am 10.1 6.7 7.5 84 1.2 WNW 15 22 8 12 - - 0.6
21/03:00am 9.8 6.4 7.6 86 1.1 NW 15 20 8 11 - - 0.6
21/02:30am 9.9 6.5 7.5 85 1.2 NW 15 20 8 11 - - 0.6
21/02:00am 10.1 6.6 7.3 83 1.3 WNW 15 22 8 12 - - 0.6
21/01:30am 9.3 6.1 6.7 84 1.2 NW 13 19 7 10 - - 0.6
21/01:00am 9.2 5.6 6.6 84 1.2 NW 15 17 8 9 - - 0.6
21/12:30am 10.1 6.5 6.8 80 1.6 WNW 15 19 8 10 - - 0.6
21/12:00am 9.5 6.5 6.2 80 1.5 WNW 11 15 6 8 - - 0.6
 
Date/Time
EDT
Temp
°C
App
Temp
°C
Dew
Point
°C
Rel
Hum
%
Delta-T
°C
Wind Press
QNH
hPa
Press
MSL
hPa
Rain since
9am
mm
Dir  Spd
km/h
Gust
km/h
Spd
kts
Gust
kts
20/11:30pm 9.9 7.0 6.3 78 1.7 WNW 11 15 6 8 - - 0.6
20/11:00pm 10.3 7.0 6.3 76 1.9 WNW 13 17 7 9 - - 0.6

Other Formats:

Comma delimited format used in spreadsheet applications
http://www.bom.gov.au/fwo/IDV60801/IDV60801.94846.axf

JavaScript Object Notation format (JSON) in row-major order
http://www.bom.gov.au/fwo/IDV60801/IDV60801.94846.json